NO-0002 weather

Maarud
Hedmark, Norway

Public forecast

Using degrees Celsius for public forecast. Weather courtesy of forecast.io.

METAR (pilot weather report)

Closest report is Oslo Gardermoen Airport, 13.9 nm (25.7 km) W. Retrieved 2019/05/24 10:20 UTC (16 minutes ago):

ENGM 241020Z 07005KT 040V100 9999 -RA FEW010 SCT023 OVC031 09/07 Q1003 TEMPO 4000 SHRA BKN012 SCT020CB

TAF (pilot weather forecast)

Closest forecast is Oslo Gardermoen Airport, 13.9 nm (25.7 km) W. Retrieved 2019/05/24 06:57 UTC (4 hours ago):

TAF ENGM 240500Z 2406/2506 12008KT 9000 -RA FEW008 BKN020 TEMPO 2406/2414 4000 SHRA BR BKN008 SCT020CB BECMG 2412/2414 02012KT TEMPO 2414/2419 SHRA FEW020CB BKN030